createdAt,value
2018-10-19T00:00:25.520Z,10.17
2018-10-19T00:01:25.510Z,10.12
2018-10-19T00:02:25.516Z,10.13
2018-10-19T00:03:25.473Z,10.07
2018-10-19T00:04:25.493Z,10.12
2018-10-19T00:05:25.464Z,10.15
2018-10-19T00:06:25.448Z,10.01
2018-10-19T00:07:25.438Z,9.97
2018-10-19T00:08:25.479Z,10.01
2018-10-19T00:09:25.445Z,10.07
2018-10-19T00:10:25.438Z,9.97
2018-10-19T00:11:25.388Z,9.89
2018-10-19T00:12:25.378Z,9.91
2018-10-19T00:13:25.373Z,9.83
2018-10-19T00:14:25.357Z,9.86
2018-10-19T00:15:25.359Z,9.87
2018-10-19T00:16:25.351Z,9.86
2018-10-19T00:17:25.329Z,9.83
2018-10-19T00:18:25.369Z,9.84
2018-10-19T00:19:25.329Z,9.87
2018-10-19T00:20:25.291Z,9.82
2018-10-19T00:21:25.288Z,9.89
2018-10-19T00:22:25.273Z,9.77
2018-10-19T00:23:25.264Z,9.84
2018-10-19T00:24:25.261Z,9.82
2018-10-19T00:25:25.240Z,9.73
2018-10-19T00:26:25.229Z,9.68
2018-10-19T00:27:25.252Z,9.76
2018-10-19T00:28:25.251Z,9.77
2018-10-19T00:29:25.229Z,9.77
2018-10-19T00:30:25.192Z,9.77
2018-10-19T00:31:25.174Z,9.87
2018-10-19T00:32:25.165Z,9.92
2018-10-19T00:33:25.156Z,9.80
2018-10-19T00:34:25.180Z,9.76
2018-10-19T00:35:25.171Z,9.62
2018-10-19T00:36:25.133Z,9.55
2018-10-19T00:37:25.114Z,9.56
2018-10-19T00:38:25.099Z,9.56
2018-10-19T00:39:25.094Z,9.62
2018-10-19T00:40:25.090Z,9.72
2018-10-19T00:41:25.074Z,9.77
2018-10-19T00:42:25.058Z,9.73
2018-10-19T00:43:25.047Z,9.76
2018-10-19T00:44:25.041Z,9.86
2018-10-19T00:45:25.040Z,9.95
2018-10-19T00:46:25.070Z,9.97
2018-10-19T00:47:25.033Z,9.98
2018-10-19T00:48:25.003Z,9.87
2018-10-19T00:49:24.988Z,9.80
2018-10-19T00:50:24.999Z,9.83
2018-10-19T00:51:24.966Z,9.77
2018-10-19T00:52:24.957Z,9.74
2018-10-19T00:53:24.943Z,9.84
2018-10-19T00:54:24.962Z,9.86
2018-10-19T00:55:24.976Z,9.77
2018-10-19T00:56:24.906Z,9.94
2018-10-19T00:57:24.910Z,9.82
2018-10-19T00:58:24.886Z,9.79
2018-10-19T00:59:24.891Z,9.83
2018-10-19T01:00:24.878Z,9.74
2018-10-19T01:01:24.870Z,9.87
2018-10-19T01:02:24.908Z,9.87
2018-10-19T01:03:24.838Z,9.89
2018-10-19T01:04:24.830Z,9.83
2018-10-19T01:05:24.815Z,9.82
2018-10-19T01:06:24.806Z,9.79
2018-10-19T01:07:24.794Z,9.79
2018-10-19T01:08:24.781Z,9.79
2018-10-19T01:09:24.771Z,9.84
2018-10-19T01:10:24.762Z,9.82
2018-10-19T01:11:24.772Z,9.84
2018-10-19T01:12:24.742Z,9.92
2018-10-19T01:13:24.741Z,9.86
2018-10-19T01:14:24.746Z,9.83
2018-10-19T01:15:24.713Z,9.86
2018-10-19T01:16:24.696Z,9.84
2018-10-19T01:17:24.686Z,9.94
2018-10-19T01:18:24.674Z,9.83
2018-10-19T01:19:24.714Z,9.87
2018-10-19T01:20:24.651Z,9.89
2018-10-19T01:21:24.652Z,9.77
2018-10-19T01:22:24.634Z,9.66
2018-10-19T01:23:24.642Z,9.68
2018-10-19T01:24:24.621Z,9.68
2018-10-19T01:25:24.612Z,9.58
2018-10-19T01:26:24.618Z,9.58
2018-10-19T01:27:24.579Z,9.64
2018-10-19T01:28:24.577Z,9.64
2018-10-19T01:29:24.563Z,9.56
2018-10-19T01:30:24.547Z,9.51
2018-10-19T01:31:24.534Z,9.50
2018-10-19T01:32:24.524Z,9.44
2018-10-19T01:33:24.580Z,9.50
2018-10-19T01:34:24.506Z,9.41
2018-10-19T01:35:24.491Z,9.32
2018-10-19T01:36:24.481Z,9.40
2018-10-19T01:37:24.480Z,9.37
2018-10-19T01:38:24.470Z,9.43
2018-10-19T01:39:24.474Z,9.40
2018-10-19T01:40:24.457Z,9.46
2018-10-19T01:41:24.433Z,9.47
2018-10-19T01:42:24.421Z,9.55
2018-10-19T01:43:24.424Z,9.51
2018-10-19T01:44:24.412Z,9.56
2018-10-19T01:45:24.406Z,9.56
2018-10-19T01:46:24.377Z,9.61
2018-10-19T01:47:24.369Z,9.62
2018-10-19T01:48:24.356Z,9.64
2018-10-19T01:49:24.364Z,9.62
2018-10-19T01:50:24.341Z,9.62
2018-10-19T01:51:24.338Z,9.56
2018-10-19T01:52:24.318Z,9.56
2018-10-19T01:53:24.313Z,9.50
2018-10-19T01:54:24.308Z,9.51
2018-10-19T01:55:24.284Z,9.54
2018-10-19T01:56:24.274Z,9.51
2018-10-19T01:57:24.377Z,9.44
2018-10-19T01:58:24.249Z,9.50
2018-10-19T01:59:24.241Z,9.41
2018-10-19T02:00:24.231Z,9.44
2018-10-19T02:01:24.215Z,9.51
2018-10-19T02:02:24.236Z,9.41
2018-10-19T02:03:24.200Z,9.40
2018-10-19T02:04:24.207Z,9.47
2018-10-19T02:05:24.207Z,9.44
2018-10-19T02:06:24.166Z,9.44
2018-10-19T02:07:24.166Z,9.48
2018-10-19T02:08:24.149Z,9.43
2018-10-19T02:09:24.146Z,9.39
2018-10-19T02:10:24.124Z,9.40
2018-10-19T02:11:24.154Z,9.32
2018-10-19T02:12:24.158Z,9.32
2018-10-19T02:13:24.089Z,9.36
2018-10-19T02:14:24.085Z,9.31
2018-10-19T02:15:24.089Z,9.36
2018-10-19T02:16:24.066Z,9.23
2018-10-19T02:17:24.047Z,9.29
2018-10-19T02:18:24.044Z,9.25
2018-10-19T02:19:24.040Z,9.23
2018-10-19T02:20:24.029Z,9.19
2018-10-19T02:21:24.250Z,9.19
2018-10-19T02:22:23.999Z,9.29
2018-10-19T02:23:24.015Z,9.16
2018-10-19T02:24:23.983Z,9.18
2018-10-19T02:25:23.969Z,9.08
2018-10-19T02:26:23.963Z,9.14
2018-10-19T02:27:23.972Z,9.06
2018-10-19T02:28:23.933Z,9.11
2018-10-19T02:29:23.917Z,9.19
2018-10-19T02:30:23.924Z,9.18
2018-10-19T02:31:23.904Z,9.21
2018-10-19T02:32:23.898Z,9.06
2018-10-19T02:33:24.442Z,9.04
2018-10-19T02:34:23.866Z,9.13
2018-10-19T02:35:23.890Z,9.16
2018-10-19T02:36:23.842Z,9.10
2018-10-19T02:37:23.849Z,9.04
2018-10-19T02:38:23.842Z,9.25
2018-10-19T02:39:23.812Z,9.22
2018-10-19T02:40:23.801Z,9.26
2018-10-19T02:41:23.791Z,9.34
2018-10-19T02:42:23.799Z,9.25
2018-10-19T02:43:23.822Z,9.32
2018-10-19T02:44:23.763Z,9.43
2018-10-19T02:45:23.753Z,9.51
2018-10-19T02:46:23.733Z,9.54
2018-10-19T02:47:23.727Z,9.36
2018-10-19T02:48:23.745Z,9.29
2018-10-19T02:49:23.727Z,9.32
2018-10-19T02:50:23.692Z,9.22
2018-10-19T02:51:23.718Z,9.21
2018-10-19T02:52:23.687Z,9.22
2018-10-19T02:53:23.684Z,9.03
2018-10-19T02:54:23.654Z,9.25
2018-10-19T02:55:23.637Z,9.23
2018-10-19T02:56:23.637Z,9.22
2018-10-19T02:57:23.627Z,9.16
2018-10-19T02:58:23.633Z,9.16
2018-10-19T02:59:23.612Z,9.04
2018-10-19T03:00:23.594Z,9.11
2018-10-19T03:01:23.572Z,9.08
2018-10-19T03:02:23.569Z,9.13
2018-10-19T03:03:23.572Z,9.11
2018-10-19T03:04:23.579Z,8.99
2018-10-19T03:05:23.529Z,8.99
2018-10-19T03:06:23.525Z,9.04
2018-10-19T03:07:23.557Z,8.95
2018-10-19T03:08:23.506Z,8.92
2018-10-19T03:09:23.500Z,8.94
2018-10-19T03:10:23.486Z,8.94
2018-10-19T03:11:23.525Z,8.91
2018-10-19T03:12:23.466Z,8.89
2018-10-19T03:13:23.446Z,8.88
2018-10-19T03:14:23.437Z,8.85
2018-10-19T03:15:23.434Z,8.89
2018-10-19T03:16:23.460Z,8.79
2018-10-19T03:17:23.424Z,8.81
2018-10-19T03:18:23.407Z,8.78
2018-10-19T03:19:23.380Z,8.79
2018-10-19T03:20:23.372Z,8.71
2018-10-19T03:21:23.369Z,8.71
2018-10-19T03:22:23.372Z,8.70
2018-10-19T03:23:23.337Z,8.70
2018-10-19T03:24:23.326Z,8.60
2018-10-19T03:25:23.341Z,8.70
2018-10-19T03:26:23.312Z,8.79
2018-10-19T03:27:23.290Z,8.78
2018-10-19T03:28:23.287Z,8.81
2018-10-19T03:29:23.288Z,8.85
2018-10-19T03:30:23.297Z,8.74
2018-10-19T03:31:23.260Z,8.79
2018-10-19T03:32:23.258Z,8.84
2018-10-19T03:33:23.227Z,8.84
2018-10-19T03:34:23.221Z,8.79
2018-10-19T03:35:23.266Z,8.81
2018-10-19T03:36:23.203Z,8.69
2018-10-19T03:37:23.197Z,8.71
2018-10-19T03:38:23.188Z,8.74
2018-10-19T03:39:23.165Z,8.70
2018-10-19T03:40:23.194Z,8.81
2018-10-19T03:41:23.173Z,8.64
2018-10-19T03:42:23.139Z,8.69
2018-10-19T03:43:23.131Z,8.84
2018-10-19T03:44:23.131Z,8.82
2018-10-19T03:45:23.117Z,8.79
2018-10-19T03:46:23.210Z,8.81
2018-10-19T03:47:23.081Z,8.78
2018-10-19T03:48:23.085Z,8.79
2018-10-19T03:49:23.164Z,8.74
2018-10-19T03:50:23.058Z,8.78
2018-10-19T03:51:23.042Z,8.78
2018-10-19T03:52:23.046Z,8.76
2018-10-19T03:53:23.022Z,8.71
2018-10-19T03:54:23.028Z,8.69
2018-10-19T03:55:22.990Z,8.66
2018-10-19T03:56:22.980Z,8.69
2018-10-19T03:57:22.999Z,8.66
2018-10-19T03:58:22.964Z,8.71
2018-10-19T03:59:22.955Z,8.70
2018-10-19T04:00:22.939Z,8.64
2018-10-19T04:01:22.930Z,8.73
2018-10-19T04:02:23.029Z,8.63
2018-10-19T04:03:22.956Z,8.64
2018-10-19T04:04:22.894Z,8.67
2018-10-19T04:05:22.900Z,8.56
2018-10-19T04:06:22.894Z,8.69
2018-10-19T04:07:22.869Z,8.67
2018-10-19T04:08:22.864Z,8.58
2018-10-19T04:09:22.854Z,8.70
2018-10-19T04:10:22.862Z,8.66
2018-10-19T04:11:22.820Z,8.69
2018-10-19T04:12:22.813Z,8.69
2018-10-19T04:13:22.827Z,8.67
2018-10-19T04:14:22.792Z,8.66
2018-10-19T04:15:22.780Z,8.61
2018-10-19T04:16:22.783Z,8.60
2018-10-19T04:17:22.765Z,8.69
2018-10-19T04:18:22.840Z,8.74
2018-10-19T04:19:22.748Z,8.79
2018-10-19T04:20:22.724Z,8.79
2018-10-19T04:21:22.720Z,8.79
2018-10-19T04:22:22.702Z,8.78
2018-10-19T04:23:22.712Z,8.82
2018-10-19T04:24:22.698Z,8.66
2018-10-19T04:25:23.460Z,8.88
2018-10-19T04:26:22.688Z,8.69
2018-10-19T04:27:22.668Z,8.79
2018-10-19T04:28:22.643Z,8.87
2018-10-19T04:29:22.651Z,8.89
2018-10-19T04:30:22.621Z,8.92
2018-10-19T04:31:22.625Z,8.92
2018-10-19T04:32:22.618Z,8.91
2018-10-19T04:33:22.592Z,8.81
2018-10-19T04:34:22.586Z,8.81
2018-10-19T04:35:22.571Z,8.78
2018-10-19T04:36:22.570Z,8.81
2018-10-19T04:37:22.555Z,8.79
2018-10-19T04:38:22.577Z,8.73
2018-10-19T04:39:22.542Z,8.81
2018-10-19T04:40:22.517Z,8.79
2018-10-19T04:41:22.536Z,8.70
2018-10-19T04:42:22.562Z,8.81
2018-10-19T04:43:22.505Z,8.79
2018-10-19T04:44:22.514Z,8.73
2018-10-19T04:45:22.482Z,8.67
2018-10-19T04:46:22.448Z,8.64
2018-10-19T04:47:22.444Z,8.79
2018-10-19T04:48:22.476Z,8.73
2018-10-19T04:49:22.416Z,8.71
2018-10-19T04:50:22.419Z,8.67
2018-10-19T04:51:22.400Z,8.74
2018-10-19T04:52:22.431Z,8.64
2018-10-19T04:53:22.375Z,8.71
2018-10-19T04:54:22.364Z,8.73
2018-10-19T04:55:22.376Z,8.70
2018-10-19T04:56:22.348Z,8.71
2018-10-19T04:57:22.333Z,8.66
2018-10-19T04:58:22.327Z,8.67
2018-10-19T04:59:22.317Z,8.76
2018-10-19T05:00:22.306Z,8.82
2018-10-19T05:01:22.313Z,8.70
2018-10-19T05:02:22.297Z,8.79
2018-10-19T05:03:22.270Z,8.89
2018-10-19T05:04:22.318Z,8.91
2018-10-19T05:05:22.370Z,8.81
2018-10-19T05:06:22.306Z,8.76
2018-10-19T05:07:22.225Z,8.67
2018-10-19T05:08:22.295Z,8.69
2018-10-19T05:09:22.206Z,8.63
2018-10-19T05:10:22.215Z,8.64
2018-10-19T05:11:22.217Z,8.60
2018-10-19T05:12:22.229Z,8.51
2018-10-19T05:13:22.163Z,8.49
2018-10-19T05:14:22.152Z,8.46
2018-10-19T05:15:22.136Z,8.55
2018-10-19T05:16:22.179Z,8.56
2018-10-19T05:17:22.159Z,8.51
2018-10-19T05:18:22.115Z,8.58
2018-10-19T05:19:22.108Z,8.66
2018-10-19T05:20:22.101Z,8.76
2018-10-19T05:21:22.077Z,8.71
2018-10-19T05:22:22.070Z,8.70
2018-10-19T05:23:22.075Z,8.66
2018-10-19T05:24:22.049Z,8.53
2018-10-19T05:25:22.031Z,8.49
2018-10-19T05:26:22.019Z,8.49
2018-10-19T05:27:22.053Z,8.46
2018-10-19T05:28:22.002Z,8.51
2018-10-19T05:29:21.996Z,8.46
2018-10-19T05:30:21.980Z,8.38
2018-10-19T05:31:21.988Z,8.27
2018-10-19T05:32:21.956Z,8.34
2018-10-19T05:33:21.950Z,8.48
2018-10-19T05:34:21.972Z,8.41
2018-10-19T05:35:21.926Z,8.42
2018-10-19T05:36:21.926Z,8.28
2018-10-19T05:37:21.903Z,8.33
2018-10-19T05:38:21.906Z,8.24
2018-10-19T05:39:21.881Z,8.19
2018-10-19T05:40:21.869Z,8.13
2018-10-19T05:41:21.865Z,8.13
2018-10-19T05:42:21.895Z,8.12
2018-10-19T05:43:21.904Z,8.08
2018-10-19T05:44:21.839Z,8.12
2018-10-19T05:45:21.820Z,8.06
2018-10-19T05:46:21.816Z,8.01
2018-10-19T05:47:21.827Z,8.01
2018-10-19T05:48:21.810Z,7.94
2018-10-19T05:49:21.800Z,7.90
2018-10-19T05:50:21.781Z,7.82
2018-10-19T05:51:21.785Z,7.80
2018-10-19T05:52:21.743Z,7.83
2018-10-19T05:53:21.740Z,7.90
2018-10-19T05:54:21.766Z,7.87
2018-10-19T05:55:21.782Z,7.98
2018-10-19T05:56:21.710Z,8.05
2018-10-19T05:57:21.693Z,8.03
2018-10-19T05:58:21.708Z,8.13
2018-10-19T05:59:21.701Z,8.24
2018-10-19T06:00:21.660Z,8.24
2018-10-19T06:01:21.676Z,8.24
2018-10-19T06:02:21.742Z,8.28
2018-10-19T06:03:21.661Z,8.19
2018-10-19T06:04:21.621Z,8.19
2018-10-19T06:05:21.639Z,8.08
2018-10-19T06:06:21.599Z,8.15
2018-10-19T06:07:21.601Z,8.09
2018-10-19T06:08:21.579Z,8.01
2018-10-19T06:09:21.565Z,8.05
2018-10-19T06:10:21.579Z,8.10
2018-10-19T06:11:21.547Z,8.03
2018-10-19T06:12:21.541Z,8.01
2018-10-19T06:13:21.523Z,7.98
2018-10-19T06:14:21.513Z,8.05
2018-10-19T06:15:21.533Z,8.01
2018-10-19T06:16:21.508Z,8.06
2018-10-19T06:17:21.480Z,8.06
2018-10-19T06:18:21.480Z,8.12
2018-10-19T06:19:21.465Z,8.06
2018-10-19T06:20:21.456Z,8.03
2018-10-19T06:21:21.486Z,8.16
2018-10-19T06:22:21.440Z,8.20
2018-10-19T06:23:21.439Z,8.09
2018-10-19T06:24:21.428Z,8.13
2018-10-19T06:25:21.399Z,8.28
2018-10-19T06:26:21.399Z,8.24
2018-10-19T06:27:21.400Z,8.46
2018-10-19T06:28:21.371Z,8.41
2018-10-19T06:29:21.406Z,8.44
2018-10-19T06:30:21.350Z,8.51
2018-10-19T06:31:21.333Z,8.55
2018-10-19T06:32:21.333Z,8.53
2018-10-19T06:33:21.310Z,8.49
2018-10-19T06:34:21.308Z,8.51
2018-10-19T06:35:21.310Z,8.42
2018-10-19T06:36:21.294Z,8.45
2018-10-19T06:37:21.271Z,8.55
2018-10-19T06:38:21.261Z,8.63
2018-10-19T06:39:21.275Z,8.66
2018-10-19T06:40:21.261Z,8.61
2018-10-19T06:41:21.241Z,8.61
2018-10-19T06:42:21.223Z,8.70
2018-10-19T06:43:21.206Z,8.64
2018-10-19T06:44:21.195Z,8.63
2018-10-19T06:45:21.200Z,8.58
2018-10-19T06:46:21.181Z,8.51
2018-10-19T06:47:21.290Z,8.49
2018-10-19T06:48:21.152Z,8.51
2018-10-19T06:49:21.145Z,8.52
2018-10-19T06:50:21.206Z,8.48
2018-10-19T06:51:21.165Z,8.46
2018-10-19T06:52:21.108Z,8.51
2018-10-19T06:53:21.113Z,8.56
2018-10-19T06:54:21.098Z,8.51
2018-10-19T06:55:21.093Z,8.61
2018-10-19T06:56:21.077Z,8.66
2018-10-19T06:57:21.063Z,8.81
2018-10-19T06:58:21.066Z,8.99
2018-10-19T06:59:21.091Z,9.08
2018-10-19T07:00:21.050Z,9.08
2018-10-19T07:01:21.030Z,9.13
2018-10-19T07:02:21.003Z,9.18
2018-10-19T07:03:21.002Z,9.02
2018-10-19T07:04:21.028Z,9.26
2018-10-19T07:05:20.981Z,9.34
2018-10-19T07:06:20.970Z,9.37
2018-10-19T07:07:21.001Z,9.46
2018-10-19T07:08:21.000Z,9.54
2018-10-19T07:09:20.933Z,9.50
2018-10-19T07:10:20.923Z,9.48
2018-10-19T07:11:20.910Z,9.40
2018-10-19T07:12:20.977Z,9.44
2018-10-19T07:13:20.884Z,9.31
2018-10-19T07:14:20.896Z,9.41
2018-10-19T07:15:20.878Z,9.44
2018-10-19T07:16:20.899Z,9.47
2018-10-19T07:17:20.866Z,9.43
2018-10-19T07:18:20.859Z,9.51
2018-10-19T07:19:20.822Z,9.62
2018-10-19T07:20:20.815Z,9.66
2018-10-19T07:21:20.836Z,9.66
2018-10-19T07:22:20.787Z,9.76
2018-10-19T07:23:20.848Z,9.80
2018-10-19T07:24:20.800Z,9.80
2018-10-19T07:25:20.758Z,9.86
2018-10-19T07:26:20.794Z,9.79
2018-10-19T07:27:20.765Z,9.84
2018-10-19T07:28:20.724Z,9.89
2018-10-19T07:29:20.746Z,9.98
2018-10-19T07:30:20.701Z,10.10
2018-10-19T07:31:20.728Z,9.98
2018-10-19T07:32:20.691Z,10.10
2018-10-19T07:33:20.669Z,10.09
2018-10-19T07:34:20.656Z,10.12
2018-10-19T07:35:20.645Z,10.16
2018-10-19T07:36:20.732Z,10.19
2018-10-19T07:37:20.669Z,10.31
2018-10-19T07:38:20.624Z,10.40
2018-10-19T07:39:20.638Z,10.53
2018-10-19T07:40:20.595Z,10.64
2018-10-19T07:41:20.582Z,10.68
2018-10-19T07:42:20.738Z,10.72
2018-10-19T07:43:20.595Z,10.75
2018-10-19T07:44:20.580Z,10.81
2018-10-19T07:45:20.565Z,10.78
2018-10-19T07:46:20.529Z,10.90
2018-10-19T07:47:20.728Z,10.93
2018-10-19T07:48:20.531Z,10.99
2018-10-19T07:49:20.548Z,10.97
2018-10-19T07:50:20.486Z,10.87
2018-10-19T07:51:20.478Z,10.93
2018-10-19T07:52:20.483Z,10.96
2018-10-19T07:53:20.456Z,10.97
2018-10-19T07:54:20.471Z,10.84
2018-10-19T07:55:20.474Z,10.99
2018-10-19T07:56:20.424Z,10.97
2018-10-19T07:57:20.419Z,11.02
2018-10-19T07:58:20.408Z,11.12
2018-10-19T07:59:20.393Z,11.11
2018-10-19T08:00:20.495Z,11.23
2018-10-19T08:01:20.542Z,11.33
2018-10-19T08:02:20.359Z,11.33
2018-10-19T08:03:20.353Z,11.41
2018-10-19T08:04:20.343Z,11.43
2018-10-19T08:05:20.350Z,11.45
2018-10-19T08:06:20.352Z,11.50
2018-10-19T08:07:20.311Z,11.37
2018-10-19T08:08:20.308Z,11.50
2018-10-19T08:09:20.298Z,11.44
2018-10-19T08:10:20.277Z,11.51
2018-10-19T08:11:20.329Z,11.48
2018-10-19T08:12:20.274Z,11.52
2018-10-19T08:13:20.256Z,11.55
2018-10-19T08:14:20.229Z,11.63
2018-10-19T08:15:20.264Z,11.66
2018-10-19T08:16:20.208Z,11.73
2018-10-19T08:17:20.255Z,11.75
2018-10-19T08:18:20.203Z,11.86
2018-10-19T08:19:20.190Z,11.94
2018-10-19T08:20:20.168Z,12.09
2018-10-19T08:21:20.203Z,12.07
2018-10-19T08:22:20.158Z,12.12
2018-10-19T08:23:20.144Z,12.24
2018-10-19T08:24:20.125Z,12.32
2018-10-19T08:25:20.118Z,12.42
2018-10-19T08:26:20.111Z,12.50
2018-10-19T08:27:20.156Z,12.53
2018-10-19T08:28:20.085Z,12.57
2018-10-19T08:29:20.078Z,12.64
2018-10-19T08:30:20.126Z,12.70
2018-10-19T08:31:20.101Z,12.73
2018-10-19T08:32:20.084Z,12.65
2018-10-19T08:33:20.042Z,12.64
2018-10-19T08:34:20.029Z,12.65
2018-10-19T08:35:20.006Z,12.68
2018-10-19T08:36:20.009Z,12.72
2018-10-19T08:37:20.047Z,12.85
2018-10-19T08:38:20.031Z,12.87
2018-10-19T08:39:19.972Z,12.95
2018-10-19T08:40:19.953Z,13.04
2018-10-19T08:41:20.063Z,13.01
2018-10-19T08:42:20.007Z,13.11
2018-10-19T08:43:20.161Z,13.19
2018-10-19T08:44:19.971Z,13.20
2018-10-19T08:45:19.943Z,13.33
2018-10-19T08:46:19.945Z,13.42
2018-10-19T08:47:19.904Z,13.41
2018-10-19T08:48:19.897Z,13.42
2018-10-19T08:49:19.878Z,13.49
2018-10-19T08:50:19.857Z,13.62
2018-10-19T08:51:19.836Z,13.72
2018-10-19T08:52:19.823Z,13.75
2018-10-19T08:53:19.921Z,13.93
2018-10-19T08:54:19.851Z,13.99
2018-10-19T08:55:19.792Z,14.12
2018-10-19T08:56:19.785Z,14.22
2018-10-19T08:57:19.794Z,14.18
2018-10-19T08:58:19.838Z,14.26
2018-10-19T08:59:19.846Z,14.33
2018-10-19T09:00:19.803Z,14.35
2018-10-19T09:01:19.731Z,14.35
2018-10-19T09:02:19.731Z,14.48
2018-10-19T09:03:19.723Z,14.53
2018-10-19T09:04:19.722Z,14.54
2018-10-19T09:05:19.684Z,14.59
2018-10-19T09:06:19.673Z,14.77
2018-10-19T09:07:19.732Z,14.84
2018-10-19T09:08:19.657Z,15.06
2018-10-19T09:09:19.663Z,15.14
2018-10-19T09:10:19.643Z,15.35
2018-10-19T09:11:19.705Z,15.54
2018-10-19T09:12:19.671Z,15.59
2018-10-19T09:13:19.603Z,15.64
2018-10-19T09:14:19.593Z,15.76
2018-10-19T09:15:19.808Z,16.01
2018-10-19T09:16:19.589Z,16.24
2018-10-19T09:17:19.554Z,16.36
2018-10-19T09:18:19.589Z,16.60
2018-10-19T09:19:19.580Z,16.79
2018-10-19T09:20:19.570Z,17.11
2018-10-19T09:21:20.766Z,17.65
2018-10-19T09:22:19.552Z,18.07
2018-10-19T09:23:19.490Z,18.58
2018-10-19T09:24:19.479Z,19.18
2018-10-19T09:25:19.473Z,19.69
2018-10-19T09:26:19.516Z,20.31
2018-10-19T09:27:19.472Z,20.78
2018-10-19T09:28:19.442Z,21.20
2018-10-19T09:29:19.486Z,21.70
2018-10-19T09:30:19.421Z,22.18
2018-10-19T09:31:19.440Z,22.78
2018-10-19T09:32:19.419Z,23.18
2018-10-19T09:33:19.385Z,23.66
2018-10-19T09:34:19.392Z,24.06
2018-10-19T09:35:19.507Z,24.39
2018-10-19T09:36:19.561Z,24.65
2018-10-19T09:37:19.393Z,25.13
2018-10-19T09:38:19.353Z,25.32
2018-10-19T09:39:19.349Z,25.41
2018-10-19T09:40:19.415Z,25.44
2018-10-19T09:41:19.370Z,25.65
2018-10-19T09:42:19.307Z,26.07
2018-10-19T09:43:19.297Z,26.23
2018-10-19T09:44:19.283Z,26.38
2018-10-19T09:45:19.293Z,26.66
2018-10-19T09:46:19.314Z,26.96
2018-10-19T09:47:19.257Z,27.25
2018-10-19T09:48:19.240Z,27.32
2018-10-19T09:49:19.220Z,27.55
2018-10-19T09:50:19.226Z,27.48
2018-10-19T09:51:19.210Z,27.58
2018-10-19T09:52:19.215Z,27.21
2018-10-19T09:53:19.235Z,27.39
2018-10-19T09:54:19.172Z,27.68
2018-10-19T09:55:19.217Z,27.95
2018-10-19T09:56:19.212Z,27.96
2018-10-19T09:57:19.131Z,28.11
2018-10-19T09:58:19.133Z,28.32
2018-10-19T09:59:19.122Z,28.51
2018-10-19T10:00:19.134Z,28.48
2018-10-19T10:01:19.119Z,28.33
2018-10-19T10:02:19.083Z,28.38
2018-10-19T10:03:19.088Z,28.57
2018-10-19T10:04:19.076Z,28.57
2018-10-19T10:05:19.049Z,28.85
2018-10-19T10:06:19.037Z,28.84
2018-10-19T10:07:19.051Z,28.84
2018-10-19T10:08:19.045Z,28.78
2018-10-19T10:09:19.014Z,28.98
2018-10-19T10:10:18.991Z,29.35
2018-10-19T10:11:19.010Z,29.44
2018-10-19T10:12:18.977Z,29.75
2018-10-19T10:13:18.967Z,29.66
2018-10-19T10:14:18.990Z,29.84
2018-10-19T10:15:18.961Z,29.97
2018-10-19T10:16:18.942Z,29.72
2018-10-19T10:17:18.993Z,29.68
2018-10-19T10:18:18.906Z,29.75
2018-10-19T10:19:18.913Z,30.08
2018-10-19T10:20:18.975Z,29.97
2018-10-19T10:21:19.494Z,30.02
2018-10-19T10:22:18.886Z,30.09
2018-10-19T10:23:18.909Z,30.23
2018-10-19T10:24:18.866Z,30.57
2018-10-19T10:25:18.943Z,30.63
2018-10-19T10:26:18.887Z,30.61
2018-10-19T10:27:18.830Z,30.70
2018-10-19T10:28:18.812Z,30.83
2018-10-19T10:29:18.802Z,30.85
2018-10-19T10:30:18.785Z,31.21
2018-10-19T10:31:18.771Z,31.18
2018-10-19T10:32:18.828Z,31.00
2018-10-19T10:33:18.799Z,31.02
2018-10-19T10:34:18.744Z,30.99
2018-10-19T10:35:18.736Z,30.94
2018-10-19T10:36:18.731Z,31.02
2018-10-19T10:37:18.708Z,31.20
2018-10-19T10:38:18.700Z,31.20
2018-10-19T10:39:18.800Z,31.55
2018-10-19T10:40:18.747Z,31.59
2018-10-19T10:41:18.667Z,31.74
2018-10-19T10:42:18.677Z,31.73
2018-10-19T10:43:18.648Z,31.59
2018-10-19T10:44:18.645Z,31.78
2018-10-19T10:45:18.629Z,31.66
2018-10-19T10:46:18.704Z,31.76
2018-10-19T10:47:18.614Z,31.55
2018-10-19T10:48:18.626Z,30.88
2018-10-19T10:49:18.612Z,30.05
2018-10-19T10:50:18.586Z,29.72
2018-10-19T10:51:18.569Z,29.56
2018-10-19T10:52:18.595Z,29.31
2018-10-19T10:53:18.548Z,29.63
2018-10-19T10:54:18.549Z,29.59
2018-10-19T10:55:18.635Z,29.19
2018-10-19T10:56:18.517Z,29.29
2018-10-19T10:57:18.514Z,29.49
2018-10-19T10:58:18.503Z,29.54
2018-10-19T10:59:18.486Z,29.24
2018-10-19T11:00:18.524Z,29.56
2018-10-19T11:01:18.497Z,29.66
2018-10-19T11:02:18.474Z,29.98
2018-10-19T11:03:18.443Z,29.56
2018-10-19T11:04:18.437Z,29.57
2018-10-19T11:05:18.502Z,30.06
2018-10-19T11:06:18.414Z,30.44
2018-10-19T11:07:18.497Z,30.85
2018-10-19T11:08:18.421Z,31.22
2018-10-19T11:09:18.398Z,31.61
2018-10-19T11:10:18.460Z,32.07
2018-10-19T11:11:18.366Z,32.27
2018-10-19T11:12:18.361Z,32.70
2018-10-19T11:13:18.343Z,32.97
2018-10-19T11:14:18.348Z,32.97
2018-10-19T11:15:18.323Z,32.48
2018-10-19T11:16:18.342Z,32.40
2018-10-19T11:17:18.298Z,32.59
2018-10-19T11:18:18.331Z,32.80
2018-10-19T11:19:18.305Z,32.68
2018-10-19T11:20:18.289Z,32.80
2018-10-19T11:21:18.275Z,32.67
2018-10-19T11:22:18.293Z,32.19
2018-10-19T11:23:18.240Z,32.03
2018-10-19T11:24:18.230Z,32.00
2018-10-19T11:25:18.218Z,31.97
2018-10-19T11:26:18.206Z,32.26
2018-10-19T11:27:18.237Z,32.43
2018-10-19T11:28:18.302Z,32.58
2018-10-19T11:29:18.177Z,32.14
2018-10-19T11:30:18.173Z,32.00
2018-10-19T11:31:18.296Z,32.14
2018-10-19T11:32:18.198Z,32.07
2018-10-19T11:33:18.134Z,31.51
2018-10-19T11:34:18.158Z,31.33
2018-10-19T11:35:18.115Z,31.00
2018-10-19T11:36:18.118Z,30.55
2018-10-19T11:37:18.113Z,30.51
2018-10-19T11:38:18.098Z,30.37
2018-10-19T11:39:18.092Z,30.43
2018-10-19T11:40:18.093Z,30.51
2018-10-19T11:41:18.059Z,30.87
2018-10-19T11:42:18.042Z,31.02
2018-10-19T11:43:18.146Z,31.09
2018-10-19T11:44:18.052Z,30.92
2018-10-19T11:45:18.008Z,31.00
2018-10-19T11:46:18.022Z,30.66
2018-10-19T11:47:18.013Z,30.80
2018-10-19T11:48:17.977Z,31.00
2018-10-19T11:49:18.113Z,31.07
2018-10-19T11:50:18.018Z,30.78
2018-10-19T11:51:17.944Z,30.80
2018-10-19T11:52:17.937Z,30.80
2018-10-19T11:53:17.938Z,31.03
2018-10-19T11:54:17.926Z,30.99
2018-10-19T11:55:17.913Z,30.68
2018-10-19T11:56:17.916Z,30.68
2018-10-19T11:57:17.896Z,30.59
2018-10-19T11:58:17.956Z,30.62
2018-10-19T11:59:17.860Z,30.65
2018-10-19T12:00:17.855Z,30.68
2018-10-19T12:01:17.848Z,30.78
2018-10-19T12:02:17.831Z,30.55
2018-10-19T12:03:17.830Z,30.51
2018-10-19T12:04:18.028Z,30.37
2018-10-19T12:05:17.852Z,30.27
2018-10-19T12:06:17.815Z,30.24
2018-10-19T12:07:17.779Z,30.16
2018-10-19T12:08:17.774Z,30.12
2018-10-19T12:09:17.761Z,30.18
2018-10-19T12:10:17.845Z,30.09
2018-10-19T12:11:17.758Z,29.68
2018-10-19T12:12:17.756Z,29.78
2018-10-19T12:13:17.750Z,29.97
2018-10-19T12:14:17.709Z,30.05
2018-10-19T12:15:17.842Z,29.93
2018-10-19T12:16:17.755Z,29.94
2018-10-19T12:17:17.738Z,29.82
2018-10-19T12:18:17.666Z,29.60
2018-10-19T12:19:17.670Z,29.56
2018-10-19T12:20:17.650Z,29.44
2018-10-19T12:21:17.810Z,29.42
2018-10-19T12:22:17.677Z,29.57
2018-10-19T12:23:17.644Z,29.60
2018-10-19T12:24:17.610Z,29.60
2018-10-19T12:25:17.626Z,29.49
2018-10-19T12:26:17.582Z,29.35
2018-10-19T12:27:17.604Z,29.34
2018-10-19T12:28:17.581Z,29.41
2018-10-19T12:29:17.572Z,29.19
2018-10-19T12:30:17.552Z,28.98
2018-10-19T12:31:17.590Z,28.98
2018-10-19T12:32:17.541Z,28.96
2018-10-19T12:33:17.616Z,29.13
2018-10-19T12:34:17.526Z,29.26
2018-10-19T12:35:17.521Z,29.20
2018-10-19T12:36:17.516Z,29.42
2018-10-19T12:37:17.585Z,29.45
2018-10-19T12:38:17.458Z,29.45
2018-10-19T12:39:17.536Z,29.31
2018-10-19T12:40:17.451Z,29.22
2018-10-19T12:41:17.586Z,29.16
2018-10-19T12:42:17.434Z,29.23
2018-10-19T12:43:17.431Z,29.19
2018-10-19T12:44:17.401Z,29.13
2018-10-19T12:45:17.490Z,28.98
2018-10-19T12:46:17.387Z,28.98
2018-10-19T12:47:17.396Z,28.96
2018-10-19T12:48:17.386Z,28.98
2018-10-19T12:49:17.501Z,29.08
2018-10-19T12:50:17.337Z,28.97
2018-10-19T12:51:17.328Z,29.23
2018-10-19T12:52:17.331Z,29.05
2018-10-19T12:53:17.330Z,28.98
2018-10-19T12:54:17.322Z,28.84
2018-10-19T12:55:17.421Z,28.63
2018-10-19T12:56:17.274Z,28.54
2018-10-19T12:57:17.337Z,28.27
2018-10-19T12:58:17.297Z,28.14
2018-10-19T12:59:17.253Z,28.15
2018-10-19T13:00:17.231Z,28.04
2018-10-19T13:01:17.266Z,28.17
2018-10-19T13:02:17.239Z,28.11
2018-10-19T13:03:17.285Z,28.08
2018-10-19T13:04:17.253Z,28.11
2018-10-19T13:05:17.184Z,28.01
2018-10-19T13:06:17.178Z,28.02